Time;durP1;ratioP1;P1;durP2;ratioP2;P2;SDS_P1;SDS_P2;PMS_P1;PMS_P2;Temp;Humidity;BMP_temperature;BMP_pressure;BME280_temperature;BME280_humidity;BME280_pressure;Samples;Min_cycle;Max_cycle;Signal;HPM_P1;HPM_P2
2024/01/30 00:01:58;;;;;;;23.65;17.58;;;6.90;99.90;;;;;;5121689;27;20047;-71
2024/01/30 00:04:24;;;;;;;24.23;18.17;;;6.90;99.90;;;;;;5108628;27;20496;-72
2024/01/30 00:06:51;;;;;;;21.50;17.08;;;6.90;99.90;;;;;;5107310;28;20036;-72
2024/01/30 00:09:16;;;;;;;22.23;17.05;;;6.80;99.90;;;;;;5114872;27;20039;-73
2024/01/30 00:11:42;;;;;;;23.30;17.33;;;6.90;99.90;;;;;;5121005;27;20046;-72
2024/01/30 00:14:08;;;;;;;23.55;17.63;;;6.80;99.90;;;;;;5105660;28;20114;-72
2024/01/30 00:16:34;;;;;;;22.50;17.00;;;6.80;99.90;;;;;;5122503;27;20135;-71
2024/01/30 00:19:02;;;;;;;21.75;17.50;;;6.80;99.90;;;;;;5114733;27;20036;-70
2024/01/30 00:21:27;;;;;;;23.60;17.08;;;6.90;99.90;;;;;;5097278;28;20036;-72
2024/01/30 00:23:53;;;;;;;24.92;16.70;;;6.90;99.90;;;;;;5113113;27;20107;-71
2024/01/30 00:26:19;;;;;;;22.42;16.70;;;6.90;99.90;;;;;;5122049;27;20036;-72
2024/01/30 00:28:45;;;;;;;23.63;16.92;;;6.90;99.90;;;;;;5118170;27;20034;-72
2024/01/30 00:31:12;;;;;;;19.90;16.40;;;6.90;99.90;;;;;;5119309;27;20437;-72
2024/01/30 00:33:41;;;;;;;21.85;16.67;;;7.00;99.90;;;;;;5113921;27;20042;-72
2024/01/30 00:36:08;;;;;;;21.42;16.13;;;7.00;99.90;;;;;;5124175;27;20087;-72
2024/01/30 00:38:34;;;;;;;22.30;17.17;;;7.00;99.90;;;;;;5116912;27;20081;-72
2024/01/30 00:41:00;;;;;;;20.88;16.35;;;7.00;99.90;;;;;;5117942;27;20035;-71
2024/01/30 00:43:26;;;;;;;22.95;17.13;;;6.90;99.90;;;;;;5112563;27;20040;-73
2024/01/30 00:45:54;;;;;;;21.17;16.27;;;6.90;99.90;;;;;;5109916;27;20135;-72
2024/01/30 00:48:20;;;;;;;19.73;15.55;;;6.90;99.90;;;;;;5122418;27;20040;-72
2024/01/30 00:50:46;;;;;;;23.13;16.30;;;6.90;99.90;;;;;;5114843;27;20040;-72
2024/01/30 00:53:12;;;;;;;21.88;15.48;;;6.90;99.90;;;;;;5114539;27;20047;-72
2024/01/30 00:55:38;;;;;;;21.48;16.27;;;6.80;99.90;;;;;;5097479;27;20046;-72
2024/01/30 00:58:05;;;;;;;21.02;16.90;;;6.80;99.90;;;;;;5118592;27;20096;-72
2024/01/30 01:00:31;;;;;;;20.63;16.48;;;6.80;99.90;;;;;;5115441;27;20047;-72
2024/01/30 01:02:59;;;;;;;20.70;16.13;;;6.80;99.90;;;;;;5116022;27;20031;-72
2024/01/30 01:05:25;;;;;;;21.35;15.90;;;6.80;99.90;;;;;;5121193;27;20171;-72
2024/01/30 01:07:51;;;;;;;21.48;15.40;;;6.80;99.90;;;;;;5124336;27;20045;-72
2024/01/30 01:10:17;;;;;;;19.90;16.05;;;6.80;99.90;;;;;;5122772;27;20084;-72
2024/01/30 01:12:43;;;;;;;22.90;16.98;;;6.80;99.90;;;;;;5121827;27;20039;-72
2024/01/30 01:15:10;;;;;;;21.15;16.05;;;6.80;99.90;;;;;;5083675;27;20122;-72
2024/01/30 01:17:39;;;;;;;21.15;16.35;;;6.80;99.90;;;;;;5103658;27;20163;-72
2024/01/30 01:20:07;;;;;;;21.65;15.40;;;6.80;99.90;;;;;;5117464;27;20055;-72
2024/01/30 01:22:33;;;;;;;22.67;16.10;;;6.80;99.90;;;;;;5114294;27;20146;-72
2024/01/30 01:25:00;;;;;;;21.42;15.68;;;6.80;99.90;;;;;;5107837;28;20063;-72
2024/01/30 01:27:26;;;;;;;21.65;15.15;;;6.70;99.90;;;;;;5078142;28;20564;-71
2024/01/30 01:29:52;;;;;;;19.52;15.73;;;6.80;99.90;;;;;;5118811;27;20039;-78
2024/01/30 01:32:18;;;;;;;20.73;16.73;;;6.80;99.90;;;;;;5116412;27;20127;-78
2024/01/30 01:34:44;;;;;;;21.95;16.85;;;6.80;99.90;;;;;;5100196;27;20476;-79
2024/01/30 01:37:10;;;;;;;20.67;15.73;;;6.80;99.90;;;;;;5100321;27;20035;-79
2024/01/30 01:39:36;;;;;;;21.25;15.85;;;6.80;99.90;;;;;;5115315;27;20043;-77
2024/01/30 01:42:02;;;;;;;20.25;15.88;;;6.80;99.90;;;;;;5113454;27;20099;-78
2024/01/30 01:44:28;;;;;;;21.70;15.70;;;6.80;99.90;;;;;;5109611;28;20039;-78
2024/01/30 01:46:54;;;;;;;21.05;15.52;;;6.80;99.90;;;;;;5113330;27;20115;-78
2024/01/30 01:49:24;;;;;;;22.02;16.02;;;6.80;99.90;;;;;;5108265;27;20452;-79
2024/01/30 01:51:53;;;;;;;20.10;16.08;;;6.80;99.90;;;;;;5118526;27;20074;-78
2024/01/30 01:54:18;;;;;;;20.40;15.88;;;6.80;99.90;;;;;;5113961;27;20051;-78
2024/01/30 01:56:44;;;;;;;20.30;15.77;;;6.80;99.90;;;;;;5092073;28;20043;-78
2024/01/30 01:59:10;;;;;;;20.25;16.38;;;6.80;99.90;;;;;;5116735;27;20034;-78
2024/01/30 02:01:43;;;;;;;20.05;15.55;;;6.80;99.90;;;;;;5125875;27;20059;-79
2024/01/30 02:04:08;;;;;;;20.00;15.43;;;6.80;99.90;;;;;;5112603;27;20157;-79
2024/01/30 02:06:35;;;;;;;20.55;15.45;;;6.80;99.90;;;;;;5120192;27;20523;-78
2024/01/30 02:09:01;;;;;;;19.88;15.02;;;6.80;99.90;;;;;;5110863;28;20044;-78
2024/01/30 02:11:28;;;;;;;20.27;14.60;;;6.80;99.90;;;;;;5105828;28;20373;-78
2024/01/30 02:13:53;;;;;;;19.50;15.43;;;6.70;99.90;;;;;;5111318;27;20067;-78
2024/01/30 02:16:19;;;;;;;22.00;14.80;;;6.70;99.90;;;;;;5121903;27;20071;-78
2024/01/30 02:18:47;;;;;;;22.73;15.05;;;6.70;99.90;;;;;;5089372;27;20120;-78
2024/01/30 02:21:15;;;;;;;18.60;14.65;;;6.70;99.90;;;;;;5101296;28;20381;-78
2024/01/30 02:23:42;;;;;;;19.00;15.20;;;6.70;99.90;;;;;;5110891;28;20043;-77
2024/01/30 02:26:08;;;;;;;18.60;15.13;;;6.70;99.90;;;;;;5106189;28;20039;-78
2024/01/30 02:28:34;;;;;;;21.85;15.30;;;6.70;99.90;;;;;;5125743;28;20118;-78
2024/01/30 02:30:59;;;;;;;18.88;14.60;;;6.80;99.90;;;;;;5111995;28;20126;-78
2024/01/30 02:33:25;;;;;;;19.40;15.52;;;6.80;99.90;;;;;;5094597;28;20035;-78
2024/01/30 02:35:51;;;;;;;20.17;14.88;;;6.90;99.90;;;;;;5116087;28;20035;-75
2024/01/30 02:38:16;;;;;;;18.17;14.80;;;6.90;99.90;;;;;;5110335;28;20050;-78
2024/01/30 02:40:42;;;;;;;19.50;14.48;;;6.90;99.90;;;;;;5120428;28;20429;-72
2024/01/30 02:43:08;;;;;;;19.73;15.00;;;7.00;99.90;;;;;;5098640;28;20464;-72
2024/01/30 02:45:34;;;;;;;21.48;15.18;;;6.90;99.90;;;;;;5105775;28;20067;-72
2024/01/30 02:48:00;;;;;;;19.42;14.80;;;7.00;99.90;;;;;;5099323;28;20044;-72
2024/01/30 02:50:25;;;;;;;19.05;14.77;;;7.00;99.90;;;;;;5120750;28;20043;-72
2024/01/30 02:52:51;;;;;;;19.67;14.38;;;6.90;99.90;;;;;;5115050;28;20046;-72
2024/01/30 02:55:20;;;;;;;19.35;14.60;;;7.00;99.90;;;;;;5085617;28;20123;-72
2024/01/30 02:57:45;;;;;;;19.77;14.93;;;7.00;99.90;;;;;;5120135;28;20117;-72
2024/01/30 03:00:12;;;;;;;17.00;13.43;;;6.90;99.90;;;;;;5089009;28;20126;-72
2024/01/30 03:02:37;;;;;;;18.77;14.23;;;6.90;99.90;;;;;;5115534;28;20071;-72
2024/01/30 03:05:05;;;;;;;19.98;13.98;;;6.90;99.90;;;;;;5094473;28;20071;-72
2024/01/30 03:07:31;;;;;;;18.98;15.23;;;6.90;99.90;;;;;;5110682;28;20615;-72
2024/01/30 03:09:56;;;;;;;20.15;15.30;;;6.80;99.90;;;;;;5114409;27;20047;-72
2024/01/30 03:12:22;;;;;;;18.67;14.23;;;6.80;99.90;;;;;;5113931;28;20031;-72
2024/01/30 03:14:49;;;;;;;24.35;15.82;;;6.80;99.90;;;;;;5122436;27;20121;-72
2024/01/30 03:17:15;;;;;;;19.98;14.40;;;6.80;99.90;;;;;;5100637;27;20103;-72
2024/01/30 03:19:41;;;;;;;22.10;15.15;;;6.90;99.90;;;;;;5095032;28;20387;-72
2024/01/30 03:22:07;;;;;;;17.98;14.57;;;6.90;99.90;;;;;;5123557;27;20035;-71
2024/01/30 03:24:32;;;;;;;19.33;14.05;;;6.90;99.90;;;;;;5107682;27;20039;-71
2024/01/30 03:26:58;;;;;;;17.10;14.38;;;7.00;99.90;;;;;;5124811;27;20402;-71
2024/01/30 03:29:24;;;;;;;17.25;14.20;;;7.00;99.90;;;;;;5113850;27;20043;-71
2024/01/30 03:31:50;;;;;;;18.20;14.18;;;6.90;99.90;;;;;;5110682;28;20075;-71
2024/01/30 03:34:15;;;;;;;18.20;14.00;;;6.90;99.90;;;;;;5113555;27;20104;-71
2024/01/30 03:36:41;;;;;;;20.48;14.98;;;6.90;99.90;;;;;;5113855;27;20050;-71
2024/01/30 03:39:07;;;;;;;19.70;14.98;;;6.90;99.90;;;;;;5120232;27;20407;-71
2024/01/30 03:41:33;;;;;;;18.83;14.55;;;6.90;99.90;;;;;;5115782;27;20039;-71
2024/01/30 03:43:59;;;;;;;19.65;14.68;;;6.90;99.90;;;;;;5114172;27;20115;-71
2024/01/30 03:46:24;;;;;;;20.63;15.52;;;6.90;99.90;;;;;;5118243;27;20081;-71
2024/01/30 03:48:50;;;;;;;21.70;15.02;;;6.90;99.90;;;;;;5119254;27;20043;-71
2024/01/30 03:51:16;;;;;;;19.38;14.60;;;6.90;99.90;;;;;;5113270;27;20464;-77
2024/01/30 03:53:43;;;;;;;17.33;14.30;;;6.90;99.90;;;;;;5124109;27;20124;-77
2024/01/30 03:56:09;;;;;;;18.90;13.93;;;6.90;99.90;;;;;;5122900;27;20403;-77
2024/01/30 03:58:35;;;;;;;17.77;14.40;;;7.00;99.90;;;;;;5121727;27;20043;-77
2024/01/30 04:01:01;;;;;;;21.67;14.23;;;7.00;99.90;;;;;;5118950;27;20160;-78
2024/01/30 04:03:26;;;;;;;18.95;14.57;;;7.00;99.90;;;;;;5107820;27;20085;-77
2024/01/30 04:05:53;;;;;;;20.27;15.10;;;7.00;99.90;;;;;;5097639;27;20038;-76
2024/01/30 04:08:19;;;;;;;20.65;14.52;;;7.00;99.90;;;;;;5113153;27;20132;-77
2024/01/30 04:10:46;;;;;;;18.38;14.52;;;7.10;99.90;;;;;;5101923;27;20088;-77
2024/01/30 04:13:12;;;;;;;19.48;14.57;;;7.10;99.90;;;;;;5121872;27;20050;-78
2024/01/30 04:15:37;;;;;;;17.60;14.57;;;7.20;99.90;;;;;;5113689;27;20126;-78
2024/01/30 04:18:03;;;;;;;19.88;13.88;;;7.20;99.90;;;;;;5110275;27;20038;-78
2024/01/30 04:20:29;;;;;;;19.55;14.35;;;7.20;99.90;;;;;;5113511;27;20049;-78
2024/01/30 04:22:55;;;;;;;19.17;14.73;;;7.20;99.90;;;;;;5113388;27;20038;-78
2024/01/30 04:25:21;;;;;;;19.27;14.68;;;7.20;99.90;;;;;;5117913;27;20036;-78
2024/01/30 04:27:48;;;;;;;19.92;14.18;;;7.20;99.90;;;;;;5105438;27;20154;-78
2024/01/30 04:30:14;;;;;;;19.40;14.68;;;7.20;99.90;;;;;;5106655;27;20548;-78
2024/01/30 04:32:39;;;;;;;18.17;14.50;;;7.30;99.90;;;;;;5110365;28;20043;-78
2024/01/30 04:35:05;;;;;;;20.75;15.00;;;7.20;99.90;;;;;;5112275;27;20040;-78
2024/01/30 04:37:31;;;;;;;21.27;14.70;;;7.30;99.90;;;;;;5112422;27;20039;-78
2024/01/30 04:39:57;;;;;;;18.75;14.23;;;7.30;99.90;;;;;;5112842;27;20439;-78
2024/01/30 04:42:23;;;;;;;18.10;14.20;;;7.40;99.90;;;;;;5102005;27;20085;-77
2024/01/30 04:44:49;;;;;;;17.90;14.07;;;7.40;99.90;;;;;;5113044;27;20035;-78
2024/01/30 04:47:15;;;;;;;18.35;14.43;;;7.50;99.90;;;;;;5123289;27;20085;-77
2024/01/30 04:49:42;;;;;;;19.05;14.68;;;7.50;99.90;;;;;;5108662;27;20039;-76
2024/01/30 04:52:08;;;;;;;19.55;14.65;;;7.50;99.90;;;;;;5115086;27;20031;-78
2024/01/30 04:54:35;;;;;;;18.98;14.65;;;7.50;99.90;;;;;;5115380;27;20172;-78
2024/01/30 04:57:01;;;;;;;18.67;15.02;;;7.50;99.90;;;;;;5114079;27;20441;-78
2024/01/30 04:59:27;;;;;;;18.40;14.27;;;7.50;99.90;;;;;;5114870;27;20042;-78
2024/01/30 05:01:53;;;;;;;17.90;13.50;;;7.50;99.90;;;;;;5116728;27;20044;-71
2024/01/30 05:04:19;;;;;;;19.92;14.70;;;7.50;99.90;;;;;;5112704;27;20036;-73
2024/01/30 05:06:45;;;;;;;18.98;13.45;;;7.60;99.90;;;;;;5118423;27;20035;-72
2024/01/30 05:09:12;;;;;;;18.52;14.32;;;7.60;99.90;;;;;;5117628;27;20031;-72
2024/01/30 05:11:41;;;;;;;20.13;15.02;;;7.50;99.90;;;;;;5118245;27;20027;-71
2024/01/30 05:14:08;;;;;;;18.58;14.65;;;7.60;99.90;;;;;;5122881;27;20088;-71
2024/01/30 05:16:34;;;;;;;18.20;14.75;;;7.60;99.90;;;;;;5095241;28;20035;-71
2024/01/30 05:19:00;;;;;;;18.15;14.40;;;7.60;99.90;;;;;;5096896;27;20039;-71
2024/01/30 05:21:26;;;;;;;19.00;15.55;;;7.50;99.90;;;;;;5112240;27;20135;-71
2024/01/30 05:23:51;;;;;;;21.35;15.00;;;7.60;99.90;;;;;;5111329;27;20031;-72
2024/01/30 05:26:17;;;;;;;20.75;14.57;;;7.60;99.90;;;;;;5127986;27;20031;-71
2024/01/30 05:28:46;;;;;;;20.83;14.88;;;7.50;99.90;;;;;;5116123;27;20039;-72
2024/01/30 05:31:12;;;;;;;19.45;15.38;;;7.50;99.90;;;;;;5111666;27;20039;-72
2024/01/30 05:33:38;;;;;;;17.60;14.35;;;7.50;99.90;;;;;;5121824;27;20058;-72
2024/01/30 05:36:04;;;;;;;20.08;15.00;;;7.50;99.90;;;;;;5094817;28;20403;-72
2024/01/30 05:38:30;;;;;;;19.85;14.45;;;7.50;99.90;;;;;;5087125;27;20042;-71
2024/01/30 05:40:57;;;;;;;19.10;14.77;;;7.50;99.90;;;;;;5089430;28;20039;-71
2024/01/30 05:43:24;;;;;;;19.08;14.88;;;7.60;99.90;;;;;;5106869;28;20040;-71
2024/01/30 05:45:50;;;;;;;18.98;13.85;;;7.60;99.90;;;;;;5105569;28;20568;-71
2024/01/30 05:48:16;;;;;;;20.02;14.70;;;7.60;99.90;;;;;;5123520;27;20169;-71
2024/01/30 05:50:41;;;;;;;20.73;14.82;;;7.60;99.90;;;;;;5123017;27;20126;-72
2024/01/30 05:53:07;;;;;;;18.50;14.70;;;7.70;99.90;;;;;;5121761;27;20043;-72
2024/01/30 05:55:33;;;;;;;20.00;14.98;;;7.70;99.90;;;;;;5119363;27;20058;-71
2024/01/30 05:57:58;;;;;;;20.40;14.77;;;7.70;99.90;;;;;;5117554;27;20035;-71
2024/01/30 06:00:24;;;;;;;18.35;13.93;;;7.70;99.90;;;;;;5113179;27;20050;-72
2024/01/30 06:02:50;;;;;;;19.58;15.02;;;7.70;99.90;;;;;;5118687;27;20081;-71
2024/01/30 06:05:16;;;;;;;18.20;14.43;;;7.80;99.90;;;;;;5126833;27;20055;-72
2024/01/30 06:07:41;;;;;;;18.40;14.68;;;7.80;99.90;;;;;;5120743;27;20118;-72
2024/01/30 06:10:08;;;;;;;20.98;15.30;;;7.80;99.90;;;;;;5112972;27;20042;-78
2024/01/30 06:12:35;;;;;;;19.33;14.65;;;7.80;99.90;;;;;;5091341;28;20048;-78
2024/01/30 06:15:01;;;;;;;19.30;14.50;;;7.90;99.90;;;;;;5104403;28;20035;-78
2024/01/30 06:17:27;;;;;;;17.67;14.52;;;7.90;99.90;;;;;;5106572;28;20036;-78
2024/01/30 06:19:52;;;;;;;19.17;13.85;;;7.90;99.90;;;;;;5102933;28;20042;-78
2024/01/30 06:22:18;;;;;;;19.25;14.60;;;7.90;99.90;;;;;;5112945;28;20027;-78
2024/01/30 06:24:50;;;;;;;19.08;13.65;;;8.00;99.90;;;;;;5096158;28;20122;-78
2024/01/30 06:27:15;;;;;;;19.63;14.40;;;8.00;99.90;;;;;;5122248;27;20043;-77
2024/01/30 06:29:43;;;;;;;20.40;14.18;;;8.00;99.90;;;;;;5106969;27;20087;-76
2024/01/30 06:32:09;;;;;;;19.33;14.10;;;8.00;99.90;;;;;;5125589;27;20016;-75
2024/01/30 06:34:34;;;;;;;19.25;14.35;;;8.00;99.90;;;;;;5134869;28;20051;-74
2024/01/30 06:37:00;;;;;;;20.08;15.20;;;8.00;99.90;;;;;;5132782;28;20044;-76
2024/01/30 06:39:27;;;;;;;18.13;13.90;;;8.00;99.90;;;;;;5132440;28;20055;-75
2024/01/30 06:41:52;;;;;;;18.95;14.10;;;8.00;99.90;;;;;;5138986;28;20019;-77
2024/01/30 06:44:18;;;;;;;19.85;14.73;;;8.00;99.90;;;;;;5129852;28;20034;-77
2024/01/30 06:46:44;;;;;;;22.55;14.20;;;8.00;99.90;;;;;;5152970;27;20023;-74
2024/01/30 06:49:10;;;;;;;18.00;13.57;;;8.00;99.90;;;;;;5141959;27;20019;-77
2024/01/30 06:51:36;;;;;;;19.50;14.95;;;8.00;99.90;;;;;;5140400;27;20087;-75
2024/01/30 06:54:01;;;;;;;19.08;14.32;;;8.00;99.90;;;;;;5141788;27;20033;-75
2024/01/30 06:56:28;;;;;;;18.98;14.32;;;8.10;99.90;;;;;;5125093;27;20039;-78
2024/01/30 06:58:54;;;;;;;19.08;14.30;;;8.10;99.90;;;;;;5123527;27;20092;-78
2024/01/30 07:01:20;;;;;;;19.85;13.75;;;8.10;99.90;;;;;;5113293;27;20055;-78
2024/01/30 07:03:46;;;;;;;19.40;14.45;;;8.10;99.90;;;;;;5131604;27;20042;-78
2024/01/30 07:06:12;;;;;;;18.90;14.18;;;8.10;99.90;;;;;;5130019;27;20099;-77
2024/01/30 07:08:41;;;;;;;18.98;14.68;;;8.10;99.90;;;;;;5139284;28;20020;-76
2024/01/30 07:11:07;;;;;;;19.02;13.98;;;8.10;99.90;;;;;;5124423;27;20087;-74
2024/01/30 07:13:34;;;;;;;16.83;13.27;;;8.10;99.90;;;;;;5155618;27;20020;-74
2024/01/30 07:16:00;;;;;;;17.73;13.32;;;8.10;99.90;;;;;;5154513;27;20019;-75
2024/01/30 07:18:25;;;;;;;19.20;13.75;;;8.20;99.90;;;;;;5149724;27;20073;-75
2024/01/30 07:20:51;;;;;;;19.45;14.10;;;8.20;99.90;;;;;;5130277;27;20122;-79
2024/01/30 07:23:17;;;;;;;19.50;14.43;;;8.10;99.90;;;;;;5116250;27;20035;-77
2024/01/30 07:25:44;;;;;;;18.35;14.00;;;8.10;99.90;;;;;;5110825;27;20031;-79
2024/01/30 07:28:10;;;;;;;17.58;13.18;;;8.10;99.90;;;;;;5132687;27;20031;-78
2024/01/30 07:30:36;;;;;;;19.55;13.07;;;8.20;99.90;;;;;;5115423;27;20410;-78
2024/01/30 07:33:02;;;;;;;17.88;13.45;;;8.20;99.90;;;;;;5070912;27;20051;-79
2024/01/30 07:35:28;;;;;;;19.48;14.35;;;8.20;99.90;;;;;;5118966;27;20046;-77
2024/01/30 07:37:54;;;;;;;18.65;14.15;;;8.20;99.90;;;;;;5132604;27;20039;-78
2024/01/30 07:40:20;;;;;;;18.67;13.55;;;8.20;99.90;;;;;;5125075;27;20521;-79
2024/01/30 07:42:46;;;;;;;18.05;14.10;;;8.30;99.90;;;;;;5113449;27;20479;-78
2024/01/30 07:45:11;;;;;;;18.02;14.32;;;8.30;99.90;;;;;;5113128;27;20046;-78
2024/01/30 07:47:42;;;;;;;19.00;14.38;;;8.30;99.90;;;;;;5113820;27;20039;-78
2024/01/30 07:50:10;;;;;;;18.80;13.70;;;8.20;99.90;;;;;;5113776;27;20557;-78
2024/01/30 07:52:37;;;;;;;16.77;13.13;;;8.20;99.90;;;;;;5127898;27;20047;-78
2024/01/30 07:55:03;;;;;;;19.92;13.82;;;8.20;99.90;;;;;;5129498;27;20496;-78
2024/01/30 07:57:29;;;;;;;18.48;14.00;;;8.30;99.90;;;;;;5123570;27;20563;-78
2024/01/30 07:59:55;;;;;;;17.63;13.55;;;8.30;99.90;;;;;;5128691;27;20121;-79
2024/01/30 08:02:22;;;;;;;18.63;13.95;;;8.20;99.90;;;;;;5111639;27;20051;-79
2024/01/30 08:04:49;;;;;;;18.25;14.02;;;8.30;99.90;;;;;;5099677;27;20031;-77
2024/01/30 08:07:15;;;;;;;16.88;12.90;;;8.30;99.90;;;;;;5127651;27;20491;-79
2024/01/30 08:09:40;;;;;;;19.23;13.35;;;8.20;99.90;;;;;;5127573;27;20088;-79
2024/01/30 08:12:07;;;;;;;20.33;14.07;;;8.30;99.90;;;;;;5111317;27;20092;-79
2024/01/30 08:14:32;;;;;;;18.98;14.57;;;8.30;99.90;;;;;;5123229;27;20107;-78
2024/01/30 08:17:01;;;;;;;17.60;13.20;;;8.30;99.90;;;;;;5128003;27;20483;-78
2024/01/30 08:19:26;;;;;;;18.63;14.55;;;8.30;99.90;;;;;;5125251;27;20031;-78
2024/01/30 08:21:52;;;;;;;18.63;13.82;;;8.30;99.90;;;;;;5124368;27;20039;-79
2024/01/30 08:24:18;;;;;;;17.75;12.98;;;8.30;99.90;;;;;;5124238;27;20036;-79
2024/01/30 08:26:44;;;;;;;17.65;13.93;;;8.30;99.90;;;;;;5111985;27;20041;-79
2024/01/30 08:29:10;;;;;;;17.15;12.93;;;8.40;99.90;;;;;;5123988;27;21514;-79
2024/01/30 08:31:36;;;;;;;17.60;13.00;;;8.40;99.90;;;;;;5112784;27;20042;-79
2024/01/30 08:34:01;;;;;;;16.27;13.02;;;8.40;99.90;;;;;;5113496;27;20082;-79
2024/01/30 08:36:27;;;;;;;17.95;12.82;;;8.50;99.90;;;;;;5127705;27;20045;-79
2024/01/30 08:38:53;;;;;;;20.33;12.68;;;8.50;99.90;;;;;;5128309;27;20075;-79
2024/01/30 08:41:19;;;;;;;15.57;13.10;;;8.50;99.90;;;;;;5124748;27;20040;-79
2024/01/30 08:43:45;;;;;;;18.85;12.75;;;8.60;99.90;;;;;;5125729;27;20101;-78
2024/01/30 08:46:11;;;;;;;18.55;13.48;;;8.60;99.90;;;;;;5106524;27;20392;-78
2024/01/30 08:48:37;;;;;;;15.82;12.65;;;8.60;99.90;;;;;;5114181;27;20085;-76
2024/01/30 08:51:03;;;;;;;19.58;13.07;;;8.70;99.90;;;;;;5125018;27;20063;-78
2024/01/30 08:53:28;;;;;;;21.88;13.35;;;8.70;99.90;;;;;;5121421;27;20043;-79
2024/01/30 08:55:54;;;;;;;16.67;12.50;;;8.70;99.90;;;;;;5110589;27;20065;-79
2024/01/30 08:58:20;;;;;;;17.83;12.40;;;8.80;99.90;;;;;;5125163;27;20068;-77
2024/01/30 09:00:45;;;;;;;16.10;12.15;;;8.80;99.90;;;;;;5113792;27;20039;-78
2024/01/30 09:03:11;;;;;;;16.27;12.43;;;8.90;99.90;;;;;;5128458;27;20467;-77
2024/01/30 09:05:37;;;;;;;16.70;12.68;;;8.90;99.90;;;;;;5111868;27;20471;-77
2024/01/30 09:08:03;;;;;;;14.30;11.38;;;8.90;99.90;;;;;;5112726;27;20035;-78
2024/01/30 09:10:28;;;;;;;16.40;12.40;;;9.00;99.90;;;;;;5124329;27;20130;-78
2024/01/30 09:12:54;;;;;;;15.73;12.07;;;9.10;99.90;;;;;;5095154;27;20063;-78
2024/01/30 09:15:20;;;;;;;16.67;12.48;;;9.10;99.90;;;;;;5112566;27;20141;-77
2024/01/30 09:17:46;;;;;;;17.33;11.68;;;9.20;99.90;;;;;;5113536;27;20051;-77
2024/01/30 09:20:11;;;;;;;16.98;12.00;;;9.20;99.90;;;;;;5126039;27;20074;-76
2024/01/30 09:22:37;;;;;;;17.23;12.00;;;9.20;99.90;;;;;;5114612;27;20039;-77
2024/01/30 09:25:03;;;;;;;16.10;12.27;;;9.20;99.90;;;;;;5127233;27;20031;-78
2024/01/30 09:27:29;;;;;;;14.73;11.48;;;9.20;99.90;;;;;;5094781;27;20038;-78
2024/01/30 09:29:55;;;;;;;17.00;12.10;;;9.20;99.90;;;;;;5125746;27;20039;-77
2024/01/30 09:32:21;;;;;;;16.15;11.80;;;9.20;99.90;;;;;;5095389;27;20090;-78
2024/01/30 09:34:47;;;;;;;16.25;12.02;;;9.20;99.90;;;;;;5112666;27;20121;-78
2024/01/30 09:37:15;;;;;;;17.30;12.65;;;9.20;99.90;;;;;;5094769;27;20074;-78
2024/01/30 09:39:41;;;;;;;17.80;12.20;;;9.20;99.90;;;;;;5123699;27;20535;-78
2024/01/30 09:42:27;;;;;;;17.35;12.60;;;9.20;99.90;;;;;;5110341;27;20035;-71
2024/01/30 09:44:53;;;;;;;16.25;12.10;;;9.30;99.90;;;;;;5116477;27;20027;-71
2024/01/30 09:47:19;;;;;;;16.45;13.00;;;9.30;99.90;;;;;;5130470;27;20040;-71
2024/01/30 09:49:45;;;;;;;17.35;12.35;;;9.50;99.90;;;;;;5128095;27;20071;-71
2024/01/30 09:52:11;;;;;;;16.42;11.40;;;9.60;99.90;;;;;;5106427;27;20035;-71
2024/01/30 09:54:38;;;;;;;16.33;11.85;;;9.70;99.90;;;;;;5128515;27;20031;-71
2024/01/30 09:57:05;;;;;;;15.93;12.13;;;9.70;99.90;;;;;;5126597;27;20035;-71
2024/01/30 09:59:32;;;;;;;18.77;12.60;;;9.70;99.90;;;;;;5058675;27;20055;-71
2024/01/30 10:01:58;;;;;;;17.45;12.15;;;9.60;99.90;;;;;;5112864;27;20078;-71
2024/01/30 10:04:23;;;;;;;15.68;11.63;;;9.60;99.90;;;;;;5113546;27;20073;-71
2024/01/30 10:06:51;;;;;;;15.68;11.30;;;9.60;99.90;;;;;;5126342;27;20045;-71
2024/01/30 10:09:16;;;;;;;15.93;11.63;;;9.70;99.90;;;;;;5107108;27;20047;-71
2024/01/30 10:11:42;;;;;;;16.52;12.07;;;9.70;99.90;;;;;;5126222;27;20039;-72
2024/01/30 10:14:08;;;;;;;16.88;11.80;;;9.70;99.90;;;;;;5107233;27;20035;-71
2024/01/30 10:16:37;;;;;;;17.90;11.50;;;9.70;99.90;;;;;;5122915;27;20541;-71
2024/01/30 10:19:03;;;;;;;18.40;11.60;;;9.80;99.90;;;;;;5110072;28;20042;-71
2024/01/30 10:21:30;;;;;;;17.73;12.40;;;9.90;99.90;;;;;;5095313;28;20031;-71
2024/01/30 10:23:59;;;;;;;15.90;11.85;;;9.90;99.90;;;;;;5110096;28;20070;-71
2024/01/30 10:26:25;;;;;;;16.60;11.77;;;10.00;99.90;;;;;;5090114;28;20035;-71
2024/01/30 10:28:51;;;;;;;15.35;11.38;;;10.00;99.90;;;;;;5121846;28;20035;-71
2024/01/30 10:31:18;;;;;;;16.48;11.50;;;10.00;99.90;;;;;;5106131;28;20039;-71
2024/01/30 10:33:45;;;;;;;17.20;11.98;;;10.00;99.90;;;;;;5108508;28;20118;-71
2024/01/30 10:36:15;;;;;;;18.23;11.60;;;10.10;99.90;;;;;;5108285;28;20156;-71
2024/01/30 10:38:42;;;;;;;15.82;11.70;;;10.20;99.90;;;;;;5110050;28;20035;-71
2024/01/30 10:41:13;;;;;;;16.45;11.73;;;10.20;99.90;;;;;;5121263;28;20128;-70
2024/01/30 10:43:42;;;;;;;15.43;11.20;;;10.30;99.90;;;;;;5122722;28;20035;-71
2024/01/30 10:46:20;;;;;;;17.35;11.55;;;10.40;99.90;;;;;;5107544;28;20046;-71
2024/01/30 10:48:58;;;;;;;14.15;11.57;;;10.40;99.90;;;;;;5103749;28;20043;-71
2024/01/30 10:51:26;;;;;;;16.17;11.55;;;10.50;99.90;;;;;;5126451;28;20031;-71
2024/01/30 10:53:53;;;;;;;17.10;11.50;;;10.40;99.90;;;;;;5108107;28;20036;-71
2024/01/30 10:56:23;;;;;;;15.75;11.75;;;10.50;99.90;;;;;;5092805;28;20039;-71
2024/01/30 10:58:54;;;;;;;16.85;11.38;;;10.50;99.90;;;;;;5125900;27;20395;-71
2024/01/30 11:01:22;;;;;;;14.73;11.00;;;10.50;99.90;;;;;;5110490;28;20090;-71
2024/01/30 11:03:50;;;;;;;16.60;12.18;;;10.50;99.90;;;;;;5122789;28;20032;-71
2024/01/30 11:06:18;;;;;;;16.48;11.98;;;10.50;99.90;;;;;;5122511;28;20078;-71
2024/01/30 11:08:59;;;;;;;15.73;11.75;;;10.60;99.90;;;;;;5126520;27;20596;-71
2024/01/30 11:11:25;;;;;;;15.32;11.50;;;10.60;99.90;;;;;;5106419;27;22022;-70
2024/01/30 11:13:51;;;;;;;17.13;11.95;;;10.50;99.90;;;;;;5121462;28;20072;-71
2024/01/30 11:16:17;;;;;;;15.70;12.05;;;10.60;99.90;;;;;;5123700;28;20052;-71
2024/01/30 11:18:43;;;;;;;15.98;11.88;;;10.50;99.90;;;;;;5108041;28;20112;-72
2024/01/30 11:21:13;;;;;;;16.75;12.07;;;10.50;99.90;;;;;;5107377;28;20039;-71
2024/01/30 11:23:39;;;;;;;16.20;11.63;;;10.50;99.90;;;;;;5122166;28;20376;-71
2024/01/30 11:26:05;;;;;;;17.70;11.75;;;10.50;99.90;;;;;;5121494;28;20038;-71
2024/01/30 11:28:34;;;;;;;16.42;11.93;;;10.50;99.90;;;;;;5124631;27;20050;-70
2024/01/30 11:31:04;;;;;;;17.27;11.80;;;10.50;99.90;;;;;;5110327;27;20050;-71
2024/01/30 11:33:31;;;;;;;19.13;12.80;;;10.50;99.90;;;;;;5111810;27;20104;-71
2024/01/30 11:36:00;;;;;;;15.65;12.00;;;10.50;99.90;;;;;;5111806;27;20036;-71
2024/01/30 11:38:27;;;;;;;15.63;11.82;;;10.60;99.90;;;;;;5126798;27;20044;-71
2024/01/30 11:40:55;;;;;;;16.05;11.27;;;10.60;99.90;;;;;;5130556;27;20039;-71
2024/01/30 11:43:21;;;;;;;18.10;12.70;;;10.60;99.90;;;;;;5128971;27;20039;-72
2024/01/30 11:45:47;;;;;;;18.38;11.48;;;10.60;99.90;;;;;;5113206;27;20031;-71
2024/01/30 11:48:13;;;;;;;16.02;11.68;;;10.60;99.90;;;;;;5129938;27;20043;-71
2024/01/30 11:50:44;;;;;;;15.02;11.75;;;10.60;99.90;;;;;;5122903;27;20436;-71
2024/01/30 11:53:10;;;;;;;19.30;12.30;;;10.60;99.90;;;;;;5129742;27;20058;-71
2024/01/30 11:55:37;;;;;;;16.90;12.23;;;10.60;99.90;;;;;;5111533;27;20047;-71
2024/01/30 11:58:06;;;;;;;19.13;12.48;;;10.60;99.90;;;;;;5131535;27;20039;-71
2024/01/30 12:00:33;;;;;;;16.00;12.32;;;10.60;99.90;;;;;;5126399;27;20070;-71
2024/01/30 12:03:00;;;;;;;19.17;12.68;;;10.60;99.90;;;;;;5112997;27;20507;-71
2024/01/30 12:05:27;;;;;;;18.65;12.88;;;10.60;99.90;;;;;;5111776;27;20184;-71
2024/01/30 12:07:53;;;;;;;17.40;12.35;;;10.60;99.90;;;;;;5128398;27;20050;-71
2024/01/30 12:10:19;;;;;;;17.23;12.48;;;10.60;99.90;;;;;;5115788;27;20042;-71
2024/01/30 12:12:50;;;;;;;18.52;12.70;;;10.60;99.90;;;;;;5095677;27;20509;-71
2024/01/30 12:15:16;;;;;;;17.50;12.65;;;10.60;99.90;;;;;;5126512;27;20054;-71
2024/01/30 12:17:42;;;;;;;21.42;12.38;;;10.60;99.90;;;;;;5113716;27;20099;-71
2024/01/30 12:20:11;;;;;;;17.52;12.95;;;10.60;99.90;;;;;;5112965;27;20039;-71
2024/01/30 12:22:44;;;;;;;19.75;13.40;;;10.60;99.90;;;;;;5122609;27;20039;-71
2024/01/30 12:25:17;;;;;;;18.17;13.27;;;10.70;99.90;;;;;;5113646;27;20027;-71
2024/01/30 12:27:45;;;;;;;20.02;13.63;;;10.70;99.90;;;;;;5127855;27;20052;-71
2024/01/30 12:30:13;;;;;;;19.48;12.98;;;10.80;99.90;;;;;;5114315;27;20043;-70
2024/01/30 12:32:44;;;;;;;19.75;13.38;;;10.90;99.90;;;;;;5125702;27;20042;-71